Time;durP1;ratioP1;P1;durP2;ratioP2;P2;SDS_P1;SDS_P2;PMS_P1;PMS_P2;Temp;Humidity;BMP_temperature;BMP_pressure;BME280_temperature;BME280_humidity;BME280_pressure;Samples;Min_cycle;Max_cycle;Signal;HPM_P1;HPM_P2
2022/10/05 00:00:24;;;;;;;7.70;4.83;;;;;;;;;;4995115;28;20194;-77
2022/10/05 00:03:35;;;;;;;9.57;5.10;;;;;;;;;;4982903;28;20214;-76
2022/10/05 00:06:53;;;;;;;7.87;5.37;;;;;;;;;;4971855;28;20218;-76
2022/10/05 00:09:58;;;;;;;13.30;6.70;;;;;;;;;;4993934;28;20182;-76
2022/10/05 00:13:10;;;;;;;9.63;6.30;;;;;;;;;;4994535;28;20222;-76
2022/10/05 00:16:19;;;;;;;10.93;5.93;;;;;;;;;;4982912;28;20178;-76
2022/10/05 00:19:35;;;;;;;7.87;6.33;;;;;;;;;;4982498;28;20186;-76
2022/10/05 00:22:40;;;;;;;9.77;6.43;;;;;;;;;;4994701;28;20222;-77
2022/10/05 00:25:44;;;;;;;10.67;6.30;;;;;;;;;;4971464;28;20211;-77
2022/10/05 00:28:50;;;;;;;12.53;5.97;;;;;;;;;;4994460;28;20178;-77
2022/10/05 00:31:54;;;;;;;8.13;4.87;;;;;;;;;;4971896;28;20182;-77
2022/10/05 00:34:58;;;;;;;11.40;5.20;;;;;;;;;;4971507;28;20553;-77
2022/10/05 00:38:02;;;;;;;5.97;4.80;;;;;;;;;;4971263;28;20633;-77
2022/10/05 00:41:31;;;;;;;8.80;6.20;;;;;;;;;;4982166;28;20178;-77
2022/10/05 00:44:48;;;;;;;11.63;5.90;;;;;;;;;;4982423;28;20182;-77
2022/10/05 00:48:21;;;;;;;9.27;6.23;;;;;;;;;;4982370;28;20182;-77
2022/10/05 00:51:35;;;;;;;8.37;5.90;;;;;;;;;;4982409;28;20186;-77
2022/10/05 00:54:51;;;;;;;15.67;6.20;;;;;;;;;;4982316;28;20186;-76
2022/10/05 00:58:12;;;;;;;13.03;6.10;;;;;;;;;;4982063;28;20210;-77
2022/10/05 01:01:41;;;;;;;11.63;5.87;;;;;;;;;;4971184;28;20195;-77
2022/10/05 01:04:57;;;;;;;13.63;6.90;;;;;;;;;;4970693;28;20197;-77
2022/10/05 01:08:23;;;;;;;8.63;6.87;;;;;;;;;;4993905;28;20183;-77
2022/10/05 01:12:09;;;;;;;10.93;6.30;;;;;;;;;;4970626;28;20187;-77
2022/10/05 01:15:32;;;;;;;10.23;6.37;;;;;;;;;;4953096;29;20184;-77
2022/10/05 01:18:46;;;;;;;12.73;6.80;;;;;;;;;;4957159;28;20184;-77
2022/10/05 01:22:08;;;;;;;9.77;6.40;;;;;;;;;;4982097;28;20194;-77
2022/10/05 01:25:37;;;;;;;9.03;6.77;;;;;;;;;;4970391;28;20210;-77
2022/10/05 01:29:25;;;;;;;9.37;6.40;;;;;;;;;;4994086;28;20179;-77
2022/10/05 01:32:57;;;;;;;10.27;6.73;;;;;;;;;;4964363;28;20222;-76
2022/10/05 01:36:20;;;;;;;7.90;6.90;;;;;;;;;;4993607;28;20182;-77
2022/10/05 01:39:36;;;;;;;12.60;6.90;;;;;;;;;;4970604;28;20183;-77
2022/10/05 01:42:58;;;;;;;10.50;6.73;;;;;;;;;;4970720;28;20214;-77
2022/10/05 01:46:17;;;;;;;10.30;6.60;;;;;;;;;;4986992;28;20230;-76
2022/10/05 01:49:41;;;;;;;11.23;7.03;;;;;;;;;;4970280;28;20528;-76
2022/10/05 01:53:21;;;;;;;9.67;6.67;;;;;;;;;;4993347;28;20218;-77
2022/10/05 01:56:38;;;;;;;9.67;7.13;;;;;;;;;;4993971;28;20523;-77
2022/10/05 02:00:00;;;;;;;9.83;6.93;;;;;;;;;;4975845;28;20207;-78
2022/10/05 02:03:19;;;;;;;11.20;6.73;;;;;;;;;;4987569;28;20215;-77
2022/10/05 02:06:26;;;;;;;11.53;6.43;;;;;;;;;;4954228;28;20215;-77
2022/10/05 02:09:38;;;;;;;11.30;6.97;;;;;;;;;;4965402;28;20179;-77
2022/10/05 02:12:44;;;;;;;8.47;5.87;;;;;;;;;;4976262;28;20215;-77
2022/10/05 02:16:02;;;;;;;11.77;7.00;;;;;;;;;;4964668;28;20183;-78
2022/10/05 02:19:30;;;;;;;9.70;6.40;;;;;;;;;;4975847;28;20188;-78
2022/10/05 02:22:40;;;;;;;10.13;6.37;;;;;;;;;;4990737;28;20222;-78
2022/10/05 02:25:48;;;;;;;10.13;6.90;;;;;;;;;;4993320;28;20669;-78
2022/10/05 02:28:58;;;;;;;11.43;6.80;;;;;;;;;;4988352;28;20183;-78
2022/10/05 02:32:09;;;;;;;11.50;6.83;;;;;;;;;;4988926;28;20186;-78
2022/10/05 02:35:16;;;;;;;10.70;6.47;;;;;;;;;;4977047;28;20186;-78
2022/10/05 02:38:49;;;;;;;8.97;6.07;;;;;;;;;;4988802;28;20198;-78
2022/10/05 02:42:30;;;;;;;11.93;7.00;;;;;;;;;;4988613;28;20182;-78
2022/10/05 02:46:02;;;;;;;8.73;6.53;;;;;;;;;;4987993;28;20229;-77
2022/10/05 02:49:13;;;;;;;9.90;6.63;;;;;;;;;;4999175;28;20182;-78
2022/10/05 02:52:27;;;;;;;10.53;7.30;;;;;;;;;;4987971;28;20182;-78
2022/10/05 02:55:45;;;;;;;8.13;6.10;;;;;;;;;;4988118;28;20174;-78
2022/10/05 02:58:59;;;;;;;11.73;7.30;;;;;;;;;;4976393;28;20597;-78
2022/10/05 03:02:15;;;;;;;8.07;6.53;;;;;;;;;;4987578;28;20182;-78
2022/10/05 03:05:30;;;;;;;11.73;6.70;;;;;;;;;;4976315;28;20183;-78
2022/10/05 03:08:45;;;;;;;8.00;5.80;;;;;;;;;;4998623;28;20190;-78
2022/10/05 03:12:01;;;;;;;10.00;6.57;;;;;;;;;;4987691;28;20178;-78
2022/10/05 03:15:47;;;;;;;12.20;5.97;;;;;;;;;;4987528;28;20182;-77
2022/10/05 03:19:25;;;;;;;6.77;6.00;;;;;;;;;;4982441;28;20206;-78
2022/10/05 03:22:52;;;;;;;10.30;6.60;;;;;;;;;;4975936;28;20217;-78
2022/10/05 03:26:24;;;;;;;11.80;6.70;;;;;;;;;;4976038;28;20206;-78
2022/10/05 03:29:42;;;;;;;7.60;6.17;;;;;;;;;;4987554;28;20206;-78
2022/10/05 03:33:09;;;;;;;9.37;5.90;;;;;;;;;;4976983;28;20218;-78
2022/10/05 03:36:49;;;;;;;10.90;6.60;;;;;;;;;;4999301;28;20190;-78
2022/10/05 03:40:08;;;;;;;8.87;6.03;;;;;;;;;;4993131;28;20178;-78
2022/10/05 03:43:25;;;;;;;9.13;5.80;;;;;;;;;;4998754;28;20214;-78
2022/10/05 03:46:48;;;;;;;8.20;6.00;;;;;;;;;;4997424;28;20226;-78
2022/10/05 03:50:15;;;;;;;7.73;5.33;;;;;;;;;;4986295;28;20196;-78
2022/10/05 03:53:24;;;;;;;7.30;5.40;;;;;;;;;;4997959;28;20213;-78
2022/10/05 03:56:37;;;;;;;8.57;5.80;;;;;;;;;;4986716;28;20182;-77
2022/10/05 04:00:04;;;;;;;6.27;5.40;;;;;;;;;;4985619;28;20202;-78
2022/10/05 04:03:33;;;;;;;8.67;5.37;;;;;;;;;;4998385;28;20712;-78
2022/10/05 04:06:43;;;;;;;7.07;4.73;;;;;;;;;;4985977;28;20210;-77
2022/10/05 04:09:51;;;;;;;8.43;5.40;;;;;;;;;;4985818;28;20202;-78
2022/10/05 04:13:14;;;;;;;6.50;5.00;;;;;;;;;;4997555;28;20680;-78
2022/10/05 04:16:26;;;;;;;8.47;5.60;;;;;;;;;;4975610;28;20178;-78
2022/10/05 04:19:39;;;;;;;7.67;5.10;;;;;;;;;;4986189;28;20182;-78
2022/10/05 04:22:54;;;;;;;7.80;5.80;;;;;;;;;;4975614;28;20218;-78
2022/10/05 04:26:07;;;;;;;8.80;6.07;;;;;;;;;;4987062;28;20226;-78
2022/10/05 04:29:40;;;;;;;9.83;6.07;;;;;;;;;;4987241;28;20184;-78
2022/10/05 04:32:49;;;;;;;9.40;6.27;;;;;;;;;;4985809;28;20680;-77
2022/10/05 04:36:17;;;;;;;7.17;5.70;;;;;;;;;;4974493;28;20182;-79
2022/10/05 04:40:00;;;;;;;8.37;6.63;;;;;;;;;;4982417;28;20188;-76
2022/10/05 04:43:17;;;;;;;15.10;6.20;;;;;;;;;;4981851;28;20226;-76
2022/10/05 04:46:44;;;;;;;10.50;6.30;;;;;;;;;;4971110;28;20206;-76
2022/10/05 04:49:58;;;;;;;9.33;5.57;;;;;;;;;;4982176;28;20641;-76
2022/10/05 04:53:11;;;;;;;8.07;5.47;;;;;;;;;;4982304;28;20214;-76
2022/10/05 04:56:29;;;;;;;9.77;5.93;;;;;;;;;;4982048;28;20178;-75
2022/10/05 04:59:39;;;;;;;13.60;6.40;;;;;;;;;;4980892;28;20206;-75
2022/10/05 05:03:14;;;;;;;9.00;6.00;;;;;;;;;;4981648;28;20225;-75
2022/10/05 05:06:33;;;;;;;9.43;5.57;;;;;;;;;;4981775;28;20574;-75
2022/10/05 05:09:53;;;;;;;7.93;6.30;;;;;;;;;;4992560;28;20178;-79
2022/10/05 05:13:26;;;;;;;8.10;5.73;;;;;;;;;;4991258;28;20219;-79
2022/10/05 05:16:38;;;;;;;9.57;5.47;;;;;;;;;;4980770;28;20182;-79
2022/10/05 05:19:54;;;;;;;5.60;4.97;;;;;;;;;;4991981;28;20187;-79
2022/10/05 05:23:04;;;;;;;7.93;5.07;;;;;;;;;;4971322;28;20209;-76
2022/10/05 05:26:21;;;;;;;7.53;5.00;;;;;;;;;;4992707;28;20665;-76
2022/10/05 05:29:51;;;;;;;12.57;7.10;;;;;;;;;;4992990;28;20202;-76
2022/10/05 05:33:23;;;;;;;12.20;5.60;;;;;;;;;;4994072;28;20550;-76
2022/10/05 05:36:44;;;;;;;8.70;5.90;;;;;;;;;;4970658;28;20202;-77
2022/10/05 05:40:24;;;;;;;11.63;6.00;;;;;;;;;;4981747;28;20182;-76
2022/10/05 05:43:35;;;;;;;8.13;5.47;;;;;;;;;;4992738;28;20218;-75
2022/10/05 05:46:48;;;;;;;9.90;5.73;;;;;;;;;;4981927;28;20206;-75
2022/10/05 05:50:07;;;;;;;7.70;5.40;;;;;;;;;;4973033;28;20202;-79
2022/10/05 05:53:38;;;;;;;8.27;5.90;;;;;;;;;;4972893;28;20584;-77
2022/10/05 05:56:48;;;;;;;8.27;5.87;;;;;;;;;;4975216;28;20174;-79
2022/10/05 06:00:05;;;;;;;6.80;4.80;;;;;;;;;;4965308;28;20538;-78
2022/10/05 06:03:48;;;;;;;7.97;5.00;;;;;;;;;;4988399;28;20222;-79
2022/10/05 06:06:55;;;;;;;7.67;5.03;;;;;;;;;;4987910;28;20206;-78
2022/10/05 06:10:13;;;;;;;9.50;5.50;;;;;;;;;;4977753;28;20539;-79
2022/10/05 06:13:31;;;;;;;9.83;5.77;;;;;;;;;;4977412;28;20221;-78
2022/10/05 06:16:41;;;;;;;7.47;5.60;;;;;;;;;;4999814;28;20178;-78
2022/10/05 06:19:48;;;;;;;6.97;5.17;;;;;;;;;;4988906;28;20178;-78
2022/10/05 06:22:56;;;;;;;6.40;5.07;;;;;;;;;;4987861;28;20222;-78
2022/10/05 06:26:19;;;;;;;10.00;5.10;;;;;;;;;;4987550;28;20187;-78
2022/10/05 06:29:30;;;;;;;6.07;4.93;;;;;;;;;;4977285;28;20183;-78
2022/10/05 06:32:55;;;;;;;6.37;4.80;;;;;;;;;;4976827;28;20218;-79
2022/10/05 06:36:19;;;;;;;6.67;4.40;;;;;;;;;;4976445;28;20178;-78
2022/10/05 06:39:51;;;;;;;8.87;4.37;;;;;;;;;;4999833;28;20183;-78
2022/10/05 06:43:20;;;;;;;5.60;4.87;;;;;;;;;;4976143;28;20222;-78
2022/10/05 06:47:17;;;;;;;8.33;5.70;;;;;;;;;;4978816;28;20225;-79
2022/10/05 06:51:14;;;;;;;6.40;5.07;;;;;;;;;;4967310;28;20532;-78
2022/10/05 06:54:44;;;;;;;8.40;4.93;;;;;;;;;;4976008;28;20182;-79
2022/10/05 06:58:09;;;;;;;6.63;5.33;;;;;;;;;;4964846;28;20194;-79
2022/10/05 07:01:41;;;;;;;9.57;5.40;;;;;;;;;;4975583;28;20182;-79
2022/10/05 07:04:56;;;;;;;8.23;4.80;;;;;;;;;;4976118;28;20174;-79
2022/10/05 07:08:04;;;;;;;6.60;5.90;;;;;;;;;;4976253;28;20211;-77
2022/10/05 07:11:30;;;;;;;8.07;6.33;;;;;;;;;;4976281;28;20182;-78
2022/10/05 07:14:48;;;;;;;6.00;5.40;;;;;;;;;;4987582;28;20186;-77
2022/10/05 07:18:11;;;;;;;5.00;4.50;;;;;;;;;;4987301;28;20194;-78
2022/10/05 07:21:31;;;;;;;10.60;4.20;;;;;;;;;;4986745;28;20182;-79
2022/10/05 07:24:57;;;;;;;4.87;3.10;;;;;;;;;;4986569;28;20183;-80
2022/10/05 07:28:18;;;;;;;7.77;3.70;;;;;;;;;;4985995;28;20210;-80
2022/10/05 07:31:30;;;;;;;8.23;3.87;;;;;;;;;;4986433;28;20182;-79
2022/10/05 07:34:59;;;;;;;6.03;4.37;;;;;;;;;;4985977;28;20182;-79
2022/10/05 07:38:22;;;;;;;5.70;3.93;;;;;;;;;;4975252;28;20182;-79
2022/10/05 07:41:32;;;;;;;5.73;3.60;;;;;;;;;;4974874;28;20182;-79
2022/10/05 07:44:45;;;;;;;4.97;3.30;;;;;;;;;;4986225;28;20518;-78
2022/10/05 07:48:14;;;;;;;7.33;3.93;;;;;;;;;;4974910;28;20214;-79
2022/10/05 07:51:24;;;;;;;7.20;3.43;;;;;;;;;;4975821;28;20182;-79
2022/10/05 07:54:46;;;;;;;5.80;3.27;;;;;;;;;;4986999;28;20210;-78
2022/10/05 07:58:22;;;;;;;4.47;3.77;;;;;;;;;;4986580;28;20202;-78
2022/10/05 08:01:50;;;;;;;4.67;3.30;;;;;;;;;;4987165;28;20178;-77
2022/10/05 08:05:04;;;;;;;9.83;3.40;;;;;;;;;;4986849;28;20186;-78
2022/10/05 08:08:22;;;;;;;4.23;3.33;;;;;;;;;;4986637;28;20218;-78
2022/10/05 08:11:36;;;;;;;4.17;3.07;;;;;;;;;;4998727;28;20641;-78
2022/10/05 08:14:51;;;;;;;6.43;3.57;;;;;;;;;;4986956;28;20186;-78
2022/10/05 08:18:04;;;;;;;5.00;3.40;;;;;;;;;;4998134;28;20178;-78
2022/10/05 08:21:12;;;;;;;3.60;2.80;;;;;;;;;;4975661;28;20183;-77
2022/10/05 08:24:19;;;;;;;5.17;2.97;;;;;;;;;;4998865;28;20225;-78
2022/10/05 08:27:40;;;;;;;8.43;3.13;;;;;;;;;;4986838;28;20210;-77
2022/10/05 08:30:54;;;;;;;7.37;4.53;;;;;;;;;;4996889;28;20178;-79
2022/10/05 08:34:19;;;;;;;4.47;3.57;;;;;;;;;;4974873;28;20558;-78
2022/10/05 08:37:29;;;;;;;9.33;3.43;;;;;;;;;;4987138;28;20183;-78
2022/10/05 08:40:52;;;;;;;3.10;2.80;;;;;;;;;;4986953;28;20178;-78
2022/10/05 08:44:33;;;;;;;3.40;2.90;;;;;;;;;;4986867;28;20214;-77
2022/10/05 08:47:59;;;;;;;3.30;2.30;;;;;;;;;;4986666;28;20222;-78
2022/10/05 08:51:22;;;;;;;2.77;1.90;;;;;;;;;;4987424;28;20183;-79
2022/10/05 08:54:49;;;;;;;3.87;2.37;;;;;;;;;;4987272;28;20218;-78
2022/10/05 08:58:25;;;;;;;3.80;1.53;;;;;;;;;;4983317;28;20249;-79
2022/10/05 09:01:35;;;;;;;8.53;5.73;;;;;;;;;;4976857;28;20186;-78
2022/10/05 09:05:12;;;;;;;4.63;1.70;;;;;;;;;;4977546;28;20178;-78
2022/10/05 09:08:29;;;;;;;2.63;1.30;;;;;;;;;;4973855;28;20226;-79
2022/10/05 09:11:40;;;;;;;3.10;1.43;;;;;;;;;;4986270;28;20190;-78
2022/10/05 09:15:04;;;;;;;3.40;1.20;;;;;;;;;;4987867;28;20545;-77
2022/10/05 09:18:42;;;;;;;4.10;1.50;;;;;;;;;;4996492;28;20178;-78
2022/10/05 09:22:14;;;;;;;4.40;1.60;;;;;;;;;;4983334;28;20182;-78
2022/10/05 09:25:21;;;;;;;5.07;1.43;;;;;;;;;;4982607;28;20534;-78
2022/10/05 09:29:11;;;;;;;5.27;3.63;;;;;;;;;;4971409;28;20210;-78
2022/10/05 09:32:41;;;;;;;2.80;2.50;;;;;;;;;;4999110;28;20187;-78
2022/10/05 09:36:14;;;;;;;4.77;1.70;;;;;;;;;;4998199;28;20187;-78
2022/10/05 09:39:43;;;;;;;1.90;1.80;;;;;;;;;;4986098;28;20182;-78
2022/10/05 09:43:07;;;;;;;3.87;1.40;;;;;;;;;;4986467;28;20209;-79
2022/10/05 09:46:14;;;;;;;3.77;1.40;;;;;;;;;;4977983;28;20536;-78
2022/10/05 09:49:19;;;;;;;3.97;1.40;;;;;;;;;;4986923;28;20214;-78
2022/10/05 09:52:45;;;;;;;2.80;1.70;;;;;;;;;;4986472;28;20625;-77
2022/10/05 09:56:10;;;;;;;2.93;1.60;;;;;;;;;;4997567;28;20629;-78
2022/10/05 09:59:37;;;;;;;5.10;1.70;;;;;;;;;;4999520;28;20201;-79
2022/10/05 10:03:16;;;;;;;4.82;1.65;;;;;;;;;;4976898;28;20230;-79
2022/10/05 10:06:50;;;;;;;3.03;1.40;;;;;;;;;;5000408;28;20189;-79
2022/10/05 10:10:13;;;;;;;4.40;1.38;;;;;;;;;;4986062;28;20203;-80
2022/10/05 10:13:40;;;;;;;7.03;1.20;;;;;;;;;;4987888;28;20211;-78
2022/10/05 10:17:05;;;;;;;2.92;1.70;;;;;;;;;;4977121;28;20182;-79
2022/10/05 10:20:33;;;;;;;1.55;1.45;;;;;;;;;;4987782;28;20179;-80
2022/10/05 10:24:13;;;;;;;3.58;1.10;;;;;;;;;;4999894;28;20220;-79
2022/10/05 10:27:55;;;;;;;2.53;1.20;;;;;;;;;;4987267;28;20187;-79
2022/10/05 10:31:18;;;;;;;3.25;1.10;;;;;;;;;;4976381;28;20193;-80
2022/10/05 10:34:22;;;;;;;4.90;1.73;;;;;;;;;;4976181;28;20221;-80
2022/10/05 10:37:51;;;;;;;4.55;1.92;;;;;;;;;;4976310;28;20192;-79
2022/10/05 10:41:23;;;;;;;4.32;1.38;;;;;;;;;;4986796;28;20181;-79
2022/10/05 10:44:58;;;;;;;4.93;1.40;;;;;;;;;;4998606;28;20213;-79
2022/10/05 10:48:05;;;;;;;5.23;1.40;;;;;;;;;;4986865;28;20211;-80
2022/10/05 10:51:21;;;;;;;5.90;1.53;;;;;;;;;;4986636;28;20546;-79
2022/10/05 10:54:57;;;;;;;2.90;1.20;;;;;;;;;;4986698;28;20693;-78
2022/10/05 10:58:38;;;;;;;3.70;1.40;;;;;;;;;;4986953;28;20205;-80
2022/10/05 11:01:48;;;;;;;4.13;1.43;;;;;;;;;;4998974;28;20630;-77
2022/10/05 11:05:20;;;;;;;3.87;1.50;;;;;;;;;;4998446;28;20524;-78
2022/10/05 11:08:33;;;;;;;4.27;1.50;;;;;;;;;;4975790;28;20668;-78
2022/10/05 11:11:48;;;;;;;3.10;1.10;;;;;;;;;;4998472;28;20548;-78
2022/10/05 11:15:23;;;;;;;2.97;1.67;;;;;;;;;;4986386;28;20185;-79
2022/10/05 11:18:46;;;;;;;2.73;1.27;;;;;;;;;;4986433;28;20187;-79
2022/10/05 11:22:18;;;;;;;3.83;1.40;;;;;;;;;;4986591;28;20184;-79
2022/10/05 11:25:34;;;;;;;1.73;1.20;;;;;;;;;;4986391;28;20175;-77
2022/10/05 11:29:16;;;;;;;1.93;1.40;;;;;;;;;;4985967;28;20214;-79
2022/10/05 11:32:59;;;;;;;4.30;1.60;;;;;;;;;;4997128;28;20202;-79
2022/10/05 11:36:31;;;;;;;2.27;1.40;;;;;;;;;;4998121;28;20182;-79
2022/10/05 11:40:17;;;;;;;3.37;1.87;;;;;;;;;;4985872;28;20182;-78
2022/10/05 11:43:23;;;;;;;3.47;1.53;;;;;;;;;;4977481;28;20567;-78
2022/10/05 11:47:07;;;;;;;4.03;1.67;;;;;;;;;;4974562;28;20637;-78
2022/10/05 11:50:31;;;;;;;2.90;1.63;;;;;;;;;;4985765;28;20551;-78
2022/10/05 11:54:05;;;;;;;6.70;1.83;;;;;;;;;;4974044;28;20215;-78
2022/10/05 11:57:36;;;;;;;1.70;1.23;;;;;;;;;;4993981;28;20204;-79
2022/10/05 12:00:56;;;;;;;7.77;1.70;;;;;;;;;;4997341;28;20179;-79
2022/10/05 12:04:20;;;;;;;4.57;1.60;;;;;;;;;;4996211;28;20219;-79
2022/10/05 12:08:07;;;;;;;4.83;1.60;;;;;;;;;;4958520;28;20558;-80
2022/10/05 12:11:46;;;;;;;27.20;2.50;;;;;;;;;;4979044;28;20664;-77
2022/10/05 12:15:06;;;;;;;2.37;1.50;;;;;;;;;;4965586;28;20183;-79
2022/10/05 12:18:16;;;;;;;1.20;1.10;;;;;;;;;;4984852;28;20184;-79
2022/10/05 12:21:44;;;;;;;4.10;1.50;;;;;;;;;;4985057;28;20194;-78
2022/10/05 12:25:01;;;;;;;3.40;1.50;;;;;;;;;;4984979;28;20183;-80
2022/10/05 12:28:11;;;;;;;2.83;1.30;;;;;;;;;;4974088;28;20686;-78
2022/10/05 12:31:38;;;;;;;5.55;1.50;;;;;;;;;;4985627;28;20183;-79
2022/10/05 12:35:02;;;;;;;3.38;1.48;;;;;;;;;;4984854;28;20180;-79
2022/10/05 12:38:27;;;;;;;8.90;1.67;;;;;;;;;;4973363;28;20180;-79
2022/10/05 12:41:38;;;;;;;2.67;1.60;;;;;;;;;;4996724;28;20619;-78
2022/10/05 12:44:59;;;;;;;6.47;1.48;;;;;;;;;;4996733;28;20185;-78
2022/10/05 12:48:12;;;;;;;7.22;1.50;;;;;;;;;;4985775;28;20180;-79
2022/10/05 12:51:39;;;;;;;7.13;1.20;;;;;;;;;;4997286;28;20198;-80
2022/10/05 12:54:43;;;;;;;4.78;1.30;;;;;;;;;;4985666;28;20182;-78
2022/10/05 12:58:04;;;;;;;2.10;0.88;;;;;;;;;;4981802;28;20207;-78
2022/10/05 13:01:26;;;;;;;1.98;0.98;;;;;;;;;;4994358;28;20188;-77
2022/10/05 13:04:52;;;;;;;3.42;0.90;;;;;;;;;;4981512;28;20221;-77
2022/10/05 13:07:59;;;;;;;3.75;1.05;;;;;;;;;;4994229;28;20184;-77
2022/10/05 13:11:19;;;;;;;3.13;1.00;;;;;;;;;;4982237;28;20181;-77
2022/10/05 13:14:52;;;;;;;1.63;1.00;;;;;;;;;;4992912;28;20220;-78
2022/10/05 13:18:16;;;;;;;7.22;1.75;;;;;;;;;;4994295;28;20185;-77
2022/10/05 13:21:28;;;;;;;2.65;1.20;;;;;;;;;;4982016;28;20635;-77
2022/10/05 13:24:46;;;;;;;1.75;1.00;;;;;;;;;;4994220;28;20517;-76
2022/10/05 13:28:09;;;;;;;1.92;0.95;;;;;;;;;;4981984;28;20185;-77
2022/10/05 13:31:38;;;;;;;4.53;1.00;;;;;;;;;;4981935;28;20186;-77
2022/10/05 13:34:56;;;;;;;3.63;1.13;;;;;;;;;;4993825;28;20520;-76
2022/10/05 13:38:27;;;;;;;2.88;1.20;;;;;;;;;;4982255;28;20186;-77
2022/10/05 13:41:50;;;;;;;1.25;0.98;;;;;;;;;;4970702;28;20190;-77
2022/10/05 13:44:59;;;;;;;4.80;1.33;;;;;;;;;;4982344;28;20519;-77
2022/10/05 13:48:22;;;;;;;4.22;1.10;;;;;;;;;;4981738;28;20624;-77
2022/10/05 13:51:35;;;;;;;4.78;1.20;;;;;;;;;;4981700;28;20632;-77
2022/10/05 13:54:57;;;;;;;7.43;2.17;;;;;;;;;;4993172;28;20202;-77
2022/10/05 13:58:10;;;;;;;2.40;1.20;;;;;;;;;;4981416;28;20210;-77
2022/10/05 14:01:24;;;;;;;3.95;1.20;;;;;;;;;;4982009;28;20188;-77
2022/10/05 14:04:43;;;;;;;1.95;1.08;;;;;;;;;;4993353;28;20690;-77
2022/10/05 14:07:51;;;;;;;3.25;1.10;;;;;;;;;;4970529;28;20185;-77
2022/10/05 14:10:57;;;;;;;1.40;0.95;;;;;;;;;;4993304;28;20656;-77
2022/10/05 14:14:30;;;;;;;2.87;1.10;;;;;;;;;;4993364;28;20218;-77
2022/10/05 14:17:42;;;;;;;8.27;1.23;;;;;;;;;;4983162;28;20183;-77
2022/10/05 14:21:11;;;;;;;10.77;1.30;;;;;;;;;;4997227;28;20175;-77
2022/10/05 14:24:19;;;;;;;3.37;1.23;;;;;;;;;;4984492;28;20205;-77
2022/10/05 14:27:25;;;;;;;3.47;1.37;;;;;;;;;;4996833;28;20200;-77
2022/10/05 14:30:31;;;;;;;4.30;1.27;;;;;;;;;;4997041;28;20213;-77
2022/10/05 14:33:35;;;;;;;2.83;1.40;;;;;;;;;;4973350;28;20224;-77
2022/10/05 14:36:42;;;;;;;2.77;1.20;;;;;;;;;;4996873;28;20199;-77
2022/10/05 14:39:49;;;;;;;5.00;1.50;;;;;;;;;;4984389;28;20176;-77
2022/10/05 14:42:54;;;;;;;3.73;1.30;;;;;;;;;;4996692;28;20216;-77
2022/10/05 14:46:01;;;;;;;5.20;1.40;;;;;;;;;;4984605;28;20187;-77
2022/10/05 14:49:21;;;;;;;70.37;5.87;;;;;;;;;;4984349;28;20210;-77
2022/10/05 14:52:31;;;;;;;36.43;3.20;;;;;;;;;;4996084;28;20180;-77
2022/10/05 14:56:15;;;;;;;7.30;1.30;;;;;;;;;;4973819;28;20512;-77
2022/10/05 14:59:31;;;;;;;20.67;2.20;;;;;;;;;;4983973;28;20552;-77
2022/10/05 15:02:59;;;;;;;12.30;1.33;;;;;;;;;;4984402;28;20224;-77
2022/10/05 15:06:13;;;;;;;17.20;3.27;;;;;;;;;;4996254;28;20183;-77
2022/10/05 15:09:29;;;;;;;29.17;4.17;;;;;;;;;;4981277;28;20219;-77
2022/10/05 15:12:38;;;;;;;17.53;2.30;;;;;;;;;;4979500;28;20229;-77
2022/10/05 15:15:42;;;;;;;8.17;1.47;;;;;;;;;;4964297;28;20189;-77
2022/10/05 15:19:41;;;;;;;4.93;1.40;;;;;;;;;;4976355;28;20200;-78
2022/10/05 15:22:59;;;;;;;2.70;1.20;;;;;;;;;;4909317;29;20579;-77
2022/10/05 15:26:28;;;;;;;13.80;2.33;;;;;;;;;;4916524;28;20205;-77
2022/10/05 15:29:54;;;;;;;8.87;2.00;;;;;;;;;;4983609;28;20215;-77
2022/10/05 15:33:26;;;;;;;12.53;1.40;;;;;;;;;;4972286;28;20220;-76
2022/10/05 15:36:50;;;;;;;34.23;1.97;;;;;;;;;;4995266;28;20528;-76
2022/10/05 15:39:58;;;;;;;10.97;1.10;;;;;;;;;;4994549;28;20179;-76
2022/10/05 15:43:10;;;;;;;9.47;2.13;;;;;;;;;;4983186;28;20219;-76
2022/10/05 15:46:49;;;;;;;2.60;1.20;;;;;;;;;;4995241;28;20182;-76
2022/10/05 15:50:05;;;;;;;8.10;1.30;;;;;;;;;;4983366;28;20210;-76
2022/10/05 15:53:33;;;;;;;3.40;1.20;;;;;;;;;;4983111;28;20214;-76
2022/10/05 15:56:37;;;;;;;61.23;3.73;;;;;;;;;;4994891;28;20181;-76
2022/10/05 15:59:47;;;;;;;4.10;1.20;;;;;;;;;;4995215;28;20202;-75
2022/10/05 16:03:09;;;;;;;3.07;1.20;;;;;;;;;;4995282;28;20221;-75
2022/10/05 16:10:16;;;;;;;2.27;1.27;;;;;;;;;;4995000;28;20209;-77
2022/10/05 16:13:34;;;;;;;3.80;1.33;;;;;;;;;;4993586;28;20218;-77
2022/10/05 16:16:48;;;;;;;2.93;1.37;;;;;;;;;;4994908;28;20186;-77
2022/10/05 16:20:06;;;;;;;2.43;1.53;;;;;;;;;;4982758;28;20182;-77
2022/10/05 16:23:34;;;;;;;5.70;1.40;;;;;;;;;;4971159;28;20221;-77
2022/10/05 16:26:57;;;;;;;2.87;1.60;;;;;;;;;;4978173;28;20198;-77
2022/10/05 16:30:07;;;;;;;4.23;1.67;;;;;;;;;;4971556;28;20214;-77
2022/10/05 16:33:17;;;;;;;6.03;1.50;;;;;;;;;;4982277;28;20563;-77
2022/10/05 16:36:39;;;;;;;3.23;1.60;;;;;;;;;;4982278;28;20284;-77
2022/10/05 16:39:58;;;;;;;3.60;1.50;;;;;;;;;;4994022;28;20187;-77
2022/10/05 16:43:30;;;;;;;2.73;1.60;;;;;;;;;;4994202;28;20222;-78
2022/10/05 16:46:58;;;;;;;2.10;1.57;;;;;;;;;;4994200;28;20182;-77
2022/10/05 16:50:31;;;;;;;2.10;1.57;;;;;;;;;;4994117;28;20665;-77
2022/10/05 16:53:50;;;;;;;4.10;1.70;;;;;;;;;;4993222;28;20562;-77
2022/10/05 16:57:08;;;;;;;4.70;1.87;;;;;;;;;;4971027;28;20538;-77
2022/10/05 17:00:22;;;;;;;2.57;1.80;;;;;;;;;;4994053;28;20174;-77
2022/10/05 17:03:33;;;;;;;4.97;1.80;;;;;;;;;;4982038;28;20253;-76
2022/10/05 17:06:46;;;;;;;3.83;1.80;;;;;;;;;;4981956;28;20519;-77
2022/10/05 17:10:18;;;;;;;5.37;1.97;;;;;;;;;;4993253;28;20210;-77
2022/10/05 17:14:00;;;;;;;3.93;1.57;;;;;;;;;;4992725;28;20221;-77
2022/10/05 17:17:37;;;;;;;3.50;1.90;;;;;;;;;;4993674;28;20182;-76
2022/10/05 17:20:44;;;;;;;2.33;2.00;;;;;;;;;;4991894;28;20198;-77
2022/10/05 17:23:56;;;;;;;2.93;1.73;;;;;;;;;;5001354;28;20218;-78
2022/10/05 17:27:19;;;;;;;5.87;1.80;;;;;;;;;;4990837;28;20186;-77
2022/10/05 17:30:42;;;;;;;2.00;1.70;;;;;;;;;;4990702;28;20214;-77
2022/10/05 17:34:05;;;;;;;3.37;1.87;;;;;;;;;;4989459;28;20210;-79
2022/10/05 17:37:34;;;;;;;8.40;1.93;;;;;;;;;;4978189;28;20182;-79
2022/10/05 17:40:39;;;;;;;5.00;1.70;;;;;;;;;;4997660;28;20178;-80
2022/10/05 17:44:23;;;;;;;3.63;1.63;;;;;;;;;;4996803;28;20214;-79
2022/10/05 17:48:05;;;;;;;4.00;1.57;;;;;;;;;;4954249;28;20203;-79
2022/10/05 17:55:24;;;;;;;2.67;1.10;;;;;;;;;;5002498;28;20634;-80
2022/10/05 17:58:28;;;;;;;2.70;1.20;;;;;;;;;;4976972;28;20206;-78
2022/10/05 18:01:40;;;;;;;2.70;1.37;;;;;;;;;;4976724;28;20570;-79
2022/10/05 18:05:19;;;;;;;3.23;1.23;;;;;;;;;;4967472;28;20666;-79
2022/10/05 18:08:24;;;;;;;5.10;3.00;;;;;;;;;;4978007;28;20574;-78
2022/10/05 18:11:37;;;;;;;4.60;2.87;;;;;;;;;;5000892;28;20210;-79
2022/10/05 18:15:05;;;;;;;4.00;2.10;;;;;;;;;;4987848;28;20198;-80
2022/10/05 18:18:31;;;;;;;1.77;1.23;;;;;;;;;;4988364;28;20182;-80
2022/10/05 18:21:37;;;;;;;2.57;1.40;;;;;;;;;;4999226;28;20206;-79
2022/10/05 18:24:54;;;;;;;4.10;1.27;;;;;;;;;;4966054;28;20182;-80
2022/10/05 18:28:24;;;;;;;4.03;1.10;;;;;;;;;;4977514;28;20187;-80
2022/10/05 18:31:42;;;;;;;2.57;1.30;;;;;;;;;;4977008;28;20214;-80
2022/10/05 18:35:13;;;;;;;3.67;1.17;;;;;;;;;;4988456;28;20186;-79
2022/10/05 18:38:43;;;;;;;1.53;1.03;;;;;;;;;;4976626;28;20178;-80
2022/10/05 18:42:07;;;;;;;5.30;1.03;;;;;;;;;;4977291;28;20182;-78
2022/10/05 18:45:27;;;;;;;4.13;2.03;;;;;;;;;;4988295;28;20186;-78
2022/10/05 18:48:48;;;;;;;3.27;2.20;;;;;;;;;;4987941;28;20206;-78
2022/10/05 18:52:12;;;;;;;4.80;1.40;;;;;;;;;;4977392;28;20210;-79
2022/10/05 18:55:24;;;;;;;3.43;1.33;;;;;;;;;;4977218;28;20182;-79
2022/10/05 18:58:47;;;;;;;6.90;1.80;;;;;;;;;;4976908;28;20210;-78
2022/10/05 19:02:16;;;;;;;1.93;1.20;;;;;;;;;;4998441;28;20538;-78
2022/10/05 19:05:50;;;;;;;3.43;1.50;;;;;;;;;;4987757;28;20190;-80
2022/10/05 19:09:25;;;;;;;2.27;1.43;;;;;;;;;;4986945;28;20182;-78
2022/10/05 19:12:44;;;;;;;4.37;1.50;;;;;;;;;;4987172;28;20570;-77
2022/10/05 19:15:59;;;;;;;4.30;1.53;;;;;;;;;;4975356;28;20202;-78
2022/10/05 19:19:23;;;;;;;4.80;1.67;;;;;;;;;;4977108;28;20178;-79
2022/10/05 19:23:04;;;;;;;5.13;1.47;;;;;;;;;;4987479;28;20898;-78
2022/10/05 19:26:23;;;;;;;2.43;1.37;;;;;;;;;;4986812;28;20198;-80
2022/10/05 19:29:32;;;;;;;5.47;1.50;;;;;;;;;;4976358;28;20182;-79
2022/10/05 19:32:55;;;;;;;2.37;1.20;;;;;;;;;;4973416;28;20210;-77
2022/10/05 19:36:11;;;;;;;4.87;1.07;;;;;;;;;;4996340;28;20187;-77
2022/10/05 19:39:57;;;;;;;2.87;1.27;;;;;;;;;;4997649;28;20190;-77
2022/10/05 19:43:34;;;;;;;2.10;1.30;;;;;;;;;;4981476;28;20222;-78
2022/10/05 19:47:03;;;;;;;3.33;1.70;;;;;;;;;;4983815;28;20202;-77
2022/10/05 19:50:20;;;;;;;2.73;1.33;;;;;;;;;;4984957;28;20179;-79
2022/10/05 19:53:24;;;;;;;1.80;1.20;;;;;;;;;;4983262;28;20210;-77
2022/10/05 19:56:34;;;;;;;3.57;1.30;;;;;;;;;;4983666;28;20186;-77
2022/10/05 19:59:44;;;;;;;3.17;1.40;;;;;;;;;;4996320;28;20210;-80
2022/10/05 20:02:49;;;;;;;2.03;1.30;;;;;;;;;;4986321;28;20558;-78
2022/10/05 20:06:05;;;;;;;1.50;1.37;;;;;;;;;;4975305;28;20186;-80
2022/10/05 20:09:20;;;;;;;2.93;1.40;;;;;;;;;;4985926;28;20190;-79